sensor_id;sensor_type;location;lat;lon;timestamp;pressure;altitude;pressure_sealevel;temperature;humidity
57628;BME280;43451;49.060;10.616;2022-09-16T00:00:52;96169.75;;;11.90;100.00
57628;BME280;43451;49.060;10.616;2022-09-16T00:03:17;96169.41;;;11.88;100.00
57628;BME280;43451;49.060;10.616;2022-09-16T00:05:51;96171.28;;;11.91;100.00
57628;BME280;43451;49.060;10.616;2022-09-16T00:08:20;96169.75;;;11.90;100.00
57628;BME280;43451;49.060;10.616;2022-09-16T00:10:45;96177.16;;;11.90;100.00
57628;BME280;43451;49.060;10.616;2022-09-16T00:13:12;96169.34;;;11.92;100.00
57628;BME280;43451;49.060;10.616;2022-09-16T00:15:42;96168.56;;;11.91;100.00
57628;BME280;43451;49.060;10.616;2022-09-16T00:18:08;96167.75;;;11.94;100.00
57628;BME280;43451;49.060;10.616;2022-09-16T00:20:33;96166.56;;;11.95;100.00
57628;BME280;43451;49.060;10.616;2022-09-16T00:22:59;96163.88;;;11.92;100.00
57628;BME280;43451;49.060;10.616;2022-09-16T00:25:24;96175.53;;;11.92;100.00
57628;BME280;43451;49.060;10.616;2022-09-16T00:27:50;96167.03;;;11.90;100.00
57628;BME280;43451;49.060;10.616;2022-09-16T00:30:15;96173.19;;;11.94;100.00
57628;BME280;43451;49.060;10.616;2022-09-16T00:32:41;96177.81;;;11.97;100.00
57628;BME280;43451;49.060;10.616;2022-09-16T00:35:06;96171.59;;;11.97;100.00
57628;BME280;43451;49.060;10.616;2022-09-16T00:37:32;96171.59;;;11.97;100.00
57628;BME280;43451;49.060;10.616;2022-09-16T00:39:58;96164.66;;;11.92;100.00
57628;BME280;43451;49.060;10.616;2022-09-16T00:42:23;96165.09;;;11.91;100.00
57628;BME280;43451;49.060;10.616;2022-09-16T00:47:17;96163.94;;;11.88;100.00
57628;BME280;43451;49.060;10.616;2022-09-16T00:49:44;96172.88;;;11.89;100.00
57628;BME280;43451;49.060;10.616;2022-09-16T00:52:11;96174.84;;;11.88;100.00
57628;BME280;43451;49.060;10.616;2022-09-16T00:54:38;96171.72;;;11.90;100.00
57628;BME280;43451;49.060;10.616;2022-09-16T00:57:06;96167.03;;;11.90;100.00
57628;BME280;43451;49.060;10.616;2022-09-16T00:59:34;96167.63;;;12.01;100.00
57628;BME280;43451;49.060;10.616;2022-09-16T01:02:10;96174.38;;;12.17;100.00
57628;BME280;43451;49.060;10.616;2022-09-16T01:04:42;96178.41;;;12.08;100.00
57628;BME280;43451;49.060;10.616;2022-09-16T01:07:09;96169.88;;;12.06;100.00
57628;BME280;43451;49.060;10.616;2022-09-16T01:09:35;96165.97;;;12.07;100.00
57628;BME280;43451;49.060;10.616;2022-09-16T01:12:02;96162.91;;;12.05;100.00
57628;BME280;43451;49.060;10.616;2022-09-16T01:14:28;96151.19;;;12.08;100.00
57628;BME280;43451;49.060;10.616;2022-09-16T01:20:14;96150.47;;;12.04;100.00
57628;BME280;43451;49.060;10.616;2022-09-16T01:44:47;96157.91;;;12.00;100.00
57628;BME280;43451;49.060;10.616;2022-09-16T01:54:42;96172.97;;;12.08;100.00
57628;BME280;43451;49.060;10.616;2022-09-16T01:57:18;96167.53;;;12.08;100.00
57628;BME280;43451;49.060;10.616;2022-09-16T01:59:57;96167.56;;;12.05;100.00
57628;BME280;43451;49.060;10.616;2022-09-16T02:03:15;96169.50;;;12.04;100.00
57628;BME280;43451;49.060;10.616;2022-09-16T02:05:19;96168.28;;;12.09;100.00
57628;BME280;43451;49.060;10.616;2022-09-16T02:07:53;96167.53;;;12.08;100.00
57628;BME280;43451;49.060;10.616;2022-09-16T02:10:38;96169.41;;;12.12;100.00
57628;BME280;43451;49.060;10.616;2022-09-16T02:13:12;96168.16;;;12.16;100.00
57628;BME280;43451;49.060;10.616;2022-09-16T02:15:41;96179.28;;;12.25;100.00
57628;BME280;43451;49.060;10.616;2022-09-16T02:18:12;96168.94;;;12.17;100.00
57628;BME280;43451;49.060;10.616;2022-09-16T02:20:44;96168.59;;;12.15;100.00
57628;BME280;43451;49.060;10.616;2022-09-16T02:23:17;96170.88;;;12.16;100.00
57628;BME280;43451;49.060;10.616;2022-09-16T02:25:45;96165.75;;;12.22;100.00
57628;BME280;43451;49.060;10.616;2022-09-16T02:28:16;96166.91;;;12.21;100.00
57628;BME280;43451;49.060;10.616;2022-09-16T02:30:48;96166.06;;;12.24;100.00
57628;BME280;43451;49.060;10.616;2022-09-16T02:33:15;96173.91;;;12.22;100.00
57628;BME280;43451;49.060;10.616;2022-09-16T02:35:43;96177.34;;;12.26;100.00
57628;BME280;43451;49.060;10.616;2022-09-16T02:38:15;96181.25;;;12.25;100.00
57628;BME280;43451;49.060;10.616;2022-09-16T02:40:50;96183.53;;;12.26;100.00
57628;BME280;43451;49.060;10.616;2022-09-16T02:43:17;96174.59;;;12.26;100.00
57628;BME280;43451;49.060;10.616;2022-09-16T02:48:55;96170.34;;;12.25;100.00
57628;BME280;43451;49.060;10.616;2022-09-16T02:54:00;96162.53;;;12.27;100.00
57628;BME280;43451;49.060;10.616;2022-09-16T02:56:32;96161.00;;;12.26;100.00
57628;BME280;43451;49.060;10.616;2022-09-16T02:58:59;96162.53;;;12.27;100.00
57628;BME280;43451;49.060;10.616;2022-09-16T03:01:28;96162.53;;;12.27;100.00
57628;BME280;43451;49.060;10.616;2022-09-16T03:03:56;96156.75;;;12.25;100.00
57628;BME280;43451;49.060;10.616;2022-09-16T03:06:23;96163.34;;;12.24;100.00
57628;BME280;43451;49.060;10.616;2022-09-16T03:08:50;96165.66;;;12.25;100.00
57628;BME280;43451;49.060;10.616;2022-09-16T03:19:59;96152.53;;;12.20;100.00
57628;BME280;43451;49.060;10.616;2022-09-16T03:22:33;96155.59;;;12.22;100.00
57628;BME280;43451;49.060;10.616;2022-09-16T03:27:45;96144.34;;;12.20;100.00
57628;BME280;43451;49.060;10.616;2022-09-16T03:30:14;96142.41;;;12.21;100.00
57628;BME280;43451;49.060;10.616;2022-09-16T03:32:45;96135.78;;;12.22;100.00
57628;BME280;43451;49.060;10.616;2022-09-16T03:37:53;96145.06;;;12.24;100.00
57628;BME280;43451;49.060;10.616;2022-09-16T03:40:20;96150.09;;;12.26;100.00
57628;BME280;43451;49.060;10.616;2022-09-16T03:42:46;96146.19;;;12.27;100.00
57628;BME280;43451;49.060;10.616;2022-09-16T03:45:15;96151.63;;;12.27;100.00
57628;BME280;43451;49.060;10.616;2022-09-16T03:47:45;96148.97;;;12.23;100.00
57628;BME280;43451;49.060;10.616;2022-09-16T03:50:11;96145.47;;;12.23;100.00
57628;BME280;43451;49.060;10.616;2022-09-16T03:52:36;96159.09;;;12.23;100.00
57628;BME280;43451;49.060;10.616;2022-09-16T03:55:02;96153.28;;;12.21;100.00
57628;BME280;43451;49.060;10.616;2022-09-16T03:57:27;96145.47;;;12.23;100.00
57628;BME280;43451;49.060;10.616;2022-09-16T03:59:55;96152.13;;;12.22;100.00
57628;BME280;43451;49.060;10.616;2022-09-16T04:02:20;96157.19;;;12.20;100.00
57628;BME280;43451;49.060;10.616;2022-09-16T04:04:46;96148.66;;;12.18;100.00
57628;BME280;43451;49.060;10.616;2022-09-16T04:07:11;96137.78;;;12.18;100.00
57628;BME280;43451;49.060;10.616;2022-09-16T04:09:37;96118.72;;;12.18;100.00
57628;BME280;43451;49.060;10.616;2022-09-16T04:12:03;96123.06;;;12.15;100.00
57628;BME280;43451;49.060;10.616;2022-09-16T04:14:32;96118.78;;;12.14;100.00
57628;BME280;43451;49.060;10.616;2022-09-16T04:16:57;96123.53;;;12.10;100.00
57628;BME280;43451;49.060;10.616;2022-09-16T04:19:23;96122.75;;;12.10;100.00
57628;BME280;43451;49.060;10.616;2022-09-16T04:21:48;96127.00;;;12.11;100.00
57628;BME280;43451;49.060;10.616;2022-09-16T04:24:14;96120.88;;;12.06;100.00
57628;BME280;43451;49.060;10.616;2022-09-16T04:26:41;96137.22;;;12.06;100.00
57628;BME280;43451;49.060;10.616;2022-09-16T04:29:06;96140.34;;;12.05;100.00
57628;BME280;43451;49.060;10.616;2022-09-16T04:31:32;96135.31;;;12.03;100.00
57628;BME280;43451;49.060;10.616;2022-09-16T04:34:00;96121.75;;;12.00;100.00
57628;BME280;43451;49.060;10.616;2022-09-16T04:36:25;96133.41;;;12.00;100.00
57628;BME280;43451;49.060;10.616;2022-09-16T04:38:51;96131.13;;;11.99;100.00
57628;BME280;43451;49.060;10.616;2022-09-16T04:41:22;96138.09;;;12.00;100.00
57628;BME280;43451;49.060;10.616;2022-09-16T04:43:54;96155.19;;;12.00;100.00
57628;BME280;43451;49.060;10.616;2022-09-16T04:46:21;96147.50;;;11.95;100.00
57628;BME280;43451;49.060;10.616;2022-09-16T04:48:48;96156.41;;;11.99;100.00
57628;BME280;43451;49.060;10.616;2022-09-16T04:51:14;96165.63;;;12.05;100.00
57628;BME280;43451;49.060;10.616;2022-09-16T04:53:42;96154.38;;;12.03;100.00
57628;BME280;43451;49.060;10.616;2022-09-16T04:56:11;96158.69;;;12.01;100.00
57628;BME280;43451;49.060;10.616;2022-09-16T04:58:47;96154.38;;;12.03;100.00
57628;BME280;43451;49.060;10.616;2022-09-16T05:01:18;96136.50;;;12.02;100.00
57628;BME280;43451;49.060;10.616;2022-09-16T05:03:47;96138.88;;;12.00;100.00
57628;BME280;43451;49.060;10.616;2022-09-16T05:06:14;96133.41;;;12.00;100.00
57628;BME280;43451;49.060;10.616;2022-09-16T05:08:40;96127.97;;;12.00;100.00
57628;BME280;43451;49.060;10.616;2022-09-16T05:11:08;96138.09;;;12.00;100.00
57628;BME280;43451;49.060;10.616;2022-09-16T05:13:34;96140.81;;;12.00;100.00
57628;BME280;43451;49.060;10.616;2022-09-16T05:16:08;96133.78;;;12.02;100.00
57628;BME280;43451;49.060;10.616;2022-09-16T05:18:35;96134.94;;;12.01;100.00
57628;BME280;43451;49.060;10.616;2022-09-16T05:21:03;96136.50;;;12.02;100.00
57628;BME280;43451;49.060;10.616;2022-09-16T05:23:30;96131.06;;;12.02;100.00
57628;BME280;43451;49.060;10.616;2022-09-16T05:26:02;96140.81;;;12.00;100.00
57628;BME280;43451;49.060;10.616;2022-09-16T05:28:28;96138.81;;;12.04;100.00
57628;BME280;43451;49.060;10.616;2022-09-16T05:30:53;96135.69;;;12.05;100.00
57628;BME280;43451;49.060;10.616;2022-09-16T05:33:19;96146.50;;;12.09;100.00
57628;BME280;43451;49.060;10.616;2022-09-16T05:35:44;96140.22;;;12.12;100.00
57628;BME280;43451;49.060;10.616;2022-09-16T05:38:11;96137.91;;;12.11;100.00
57628;BME280;43451;49.060;10.616;2022-09-16T05:40:37;96123.16;;;12.08;100.00
57628;BME280;43451;49.060;10.616;2022-09-16T05:43:02;96124.34;;;12.07;100.00
57628;BME280;43451;49.060;10.616;2022-09-16T05:45:28;96138.75;;;12.07;100.00
57628;BME280;43451;49.060;10.616;2022-09-16T05:47:53;96154.13;;;12.18;100.00
57628;BME280;43451;49.060;10.616;2022-09-16T05:50:19;96135.84;;;12.18;100.00
57628;BME280;43451;49.060;10.616;2022-09-16T05:52:44;96142.41;;;12.21;100.00
57628;BME280;43451;49.060;10.616;2022-09-16T05:55:10;96160.63;;;12.24;100.00
57628;BME280;43451;49.060;10.616;2022-09-16T05:57:35;96164.53;;;12.23;100.00
57628;BME280;43451;49.060;10.616;2022-09-16T06:00:02;96157.28;;;12.16;100.00
57628;BME280;43451;49.060;10.616;2022-09-16T06:02:28;96158.72;;;12.21;100.00
57628;BME280;43451;49.060;10.616;2022-09-16T06:04:53;96165.06;;;12.14;100.00
57628;BME280;43451;49.060;10.616;2022-09-16T06:07:19;96165.88;;;12.15;100.00
57628;BME280;43451;49.060;10.616;2022-09-16T06:09:44;96169.81;;;12.10;100.00
57628;BME280;43451;49.060;10.616;2022-09-16T06:12:10;96160.94;;;12.06;100.00
57628;BME280;43451;49.060;10.616;2022-09-16T06:14:35;96165.25;;;12.03;100.00
57628;BME280;43451;49.060;10.616;2022-09-16T06:17:01;96167.63;;;12.01;100.00
57628;BME280;43451;49.060;10.616;2022-09-16T06:19:26;96163.72;;;12.02;100.00
57628;BME280;43451;49.060;10.616;2022-09-16T06:21:52;96161.78;;;12.03;100.00
57628;BME280;43451;49.060;10.616;2022-09-16T06:24:18;96173.06;;;12.01;100.00
57628;BME280;43451;49.060;10.616;2022-09-16T06:26:44;96164.75;;;12.12;100.00
57628;BME280;43451;49.060;10.616;2022-09-16T06:29:11;96164.44;;;12.06;100.00
57628;BME280;43451;49.060;10.616;2022-09-16T06:31:37;96164.91;;;12.01;100.00
57628;BME280;43451;49.060;10.616;2022-09-16T06:34:03;96171.91;;;12.02;100.00
57628;BME280;43451;49.060;10.616;2022-09-16T06:36:32;96169.19;;;12.02;100.00
57628;BME280;43451;49.060;10.616;2022-09-16T06:38:58;96165.72;;;11.98;100.00
57628;BME280;43451;49.060;10.616;2022-09-16T06:41:23;96157.56;;;11.98;100.00
57628;BME280;43451;49.060;10.616;2022-09-16T06:43:50;96159.13;;;11.99;100.00
57628;BME280;43451;49.060;10.616;2022-09-16T06:46:22;96156.03;;;11.97;100.00
57628;BME280;43451;49.060;10.616;2022-09-16T06:48:50;96159.44;;;12.01;100.00
57628;BME280;43451;49.060;10.616;2022-09-16T06:51:16;96169.13;;;12.06;100.00
57628;BME280;43451;49.060;10.616;2022-09-16T06:53:43;96157.69;;;12.15;100.00
57628;BME280;43451;49.060;10.616;2022-09-16T06:56:14;96154.69;;;12.09;100.00
57628;BME280;43451;49.060;10.616;2022-09-16T06:58:41;96154.69;;;12.09;100.00
57628;BME280;43451;49.060;10.616;2022-09-16T07:01:10;96149.69;;;12.04;100.00
57628;BME280;43451;49.060;10.616;2022-09-16T07:03:37;96148.03;;;12.10;100.00
57628;BME280;43451;49.060;10.616;2022-09-16T07:06:03;96152.78;;;12.06;100.00
57628;BME280;43451;49.060;10.616;2022-09-16T07:08:30;96153.78;;;12.16;100.00
57628;BME280;43451;49.060;10.616;2022-09-16T07:11:01;96153.53;;;12.06;100.00
57628;BME280;43451;49.060;10.616;2022-09-16T07:13:27;96151.19;;;12.08;100.00
57628;BME280;43451;49.060;10.616;2022-09-16T07:15:53;96152.72;;;12.10;100.00
57628;BME280;43451;49.060;10.616;2022-09-16T07:18:19;96149.56;;;12.11;100.00
57628;BME280;43451;49.060;10.616;2022-09-16T07:20:44;96149.63;;;12.07;100.00
57628;BME280;43451;49.060;10.616;2022-09-16T07:23:10;96153.19;;;12.04;100.00
57628;BME280;43451;49.060;10.616;2022-09-16T07:25:35;96161.25;;;12.12;100.00
57628;BME280;43451;49.060;10.616;2022-09-16T07:28:01;96143.88;;;12.25;100.00
57628;BME280;43451;49.060;10.616;2022-09-16T07:30:28;96148.34;;;12.16;100.00
57628;BME280;43451;49.060;10.616;2022-09-16T07:32:54;96157.47;;;12.05;100.00
57628;BME280;43451;49.060;10.616;2022-09-16T07:35:20;96169.81;;;12.10;100.00
57628;BME280;43451;49.060;10.616;2022-09-16T07:37:46;96166.28;;;12.13;100.00
57628;BME280;43451;49.060;10.616;2022-09-16T07:40:11;96175.91;;;12.18;100.00
57628;BME280;43451;49.060;10.616;2022-09-16T07:42:38;96175.03;;;12.24;100.00
57628;BME280;43451;49.060;10.616;2022-09-16T07:45:04;96177.41;;;12.22;100.00
57628;BME280;43451;49.060;10.616;2022-09-16T07:47:29;96185.94;;;12.24;100.00
57628;BME280;43451;49.060;10.616;2022-09-16T07:49:55;96178.63;;;12.18;100.00
57628;BME280;43451;49.060;10.616;2022-09-16T07:52:22;96180.53;;;12.21;100.00
57628;BME280;43451;49.060;10.616;2022-09-16T07:54:50;96176.34;;;12.16;100.00
57628;BME280;43451;49.060;10.616;2022-09-16T07:57:15;96178.16;;;12.23;100.00
57628;BME280;43451;49.060;10.616;2022-09-16T07:59:41;96185.97;;;12.21;100.00
57628;BME280;43451;49.060;10.616;2022-09-16T08:02:08;96182.38;;;12.27;100.00
57628;BME280;43451;49.060;10.616;2022-09-16T08:04:33;96176.50;;;12.29;100.00
57628;BME280;43451;49.060;10.616;2022-09-16T08:06:58;96176.50;;;12.29;100.00
57628;BME280;43451;49.060;10.616;2022-09-16T08:09:24;96173.41;;;12.27;100.00
57628;BME280;43451;49.060;10.616;2022-09-16T08:11:49;96157.03;;;12.30;100.00
57628;BME280;43451;49.060;10.616;2022-09-16T08:14:15;96157.22;;;12.40;100.00
57628;BME280;43451;49.060;10.616;2022-09-16T08:16:40;96163.66;;;12.49;100.00
57628;BME280;43451;49.060;10.616;2022-09-16T08:19:05;96147.13;;;12.60;100.00
57628;BME280;43451;49.060;10.616;2022-09-16T08:21:31;96157.22;;;12.63;100.00
57628;BME280;43451;49.060;10.616;2022-09-16T08:23:57;96159.38;;;12.72;100.00
57628;BME280;43451;49.060;10.616;2022-09-16T08:26:22;96161.59;;;12.77;100.00
57628;BME280;43451;49.060;10.616;2022-09-16T08:28:49;96157.88;;;12.87;100.00
57628;BME280;43451;49.060;10.616;2022-09-16T08:31:16;96167.41;;;12.79;100.00
57628;BME280;43451;49.060;10.616;2022-09-16T08:33:41;96166.66;;;12.78;95.99
57628;BME280;43451;49.060;10.616;2022-09-16T08:36:14;96170.13;;;12.79;100.00
57628;BME280;43451;49.060;10.616;2022-09-16T08:38:42;96171.81;;;12.73;100.00
57628;BME280;43451;49.060;10.616;2022-09-16T08:43:43;96173.69;;;12.56;100.00
57628;BME280;43451;49.060;10.616;2022-09-16T08:46:20;96180.88;;;12.46;100.00
57628;BME280;43451;49.060;10.616;2022-09-16T08:51:57;96189.53;;;12.41;100.00
57628;BME280;43451;49.060;10.616;2022-09-16T08:54:33;96188.25;;;12.46;100.00
57628;BME280;43451;49.060;10.616;2022-09-16T08:57:03;96181.66;;;12.47;100.00
57628;BME280;43451;49.060;10.616;2022-09-16T08:59:34;96178.78;;;12.54;100.00
57628;BME280;43451;49.060;10.616;2022-09-16T09:04:45;96189.16;;;12.83;100.00
57628;BME280;43451;49.060;10.616;2022-09-16T09:13:11;96176.63;;;13.05;100.00
57628;BME280;43451;49.060;10.616;2022-09-16T09:15:53;96183.69;;;13.02;100.00
57628;BME280;43451;49.060;10.616;2022-09-16T09:18:34;96186.69;;;13.08;100.00
57628;BME280;43451;49.060;10.616;2022-09-16T09:21:13;96192.31;;;13.01;100.00
57628;BME280;43451;49.060;10.616;2022-09-16T09:23:52;96185.56;;;13.06;100.00
57628;BME280;43451;49.060;10.616;2022-09-16T09:26:28;96185.84;;;13.11;100.00
57628;BME280;43451;49.060;10.616;2022-09-16T09:29:14;96183.75;;;12.99;100.00
57628;BME280;43451;49.060;10.616;2022-09-16T09:42:28;96187.41;;;12.72;99.72
57628;BME280;43451;49.060;10.616;2022-09-16T09:44:56;96188.16;;;12.73;99.03
57628;BME280;43451;49.060;10.616;2022-09-16T09:47:29;96187.34;;;12.76;99.00
57628;BME280;43451;49.060;10.616;2022-09-16T09:49:57;96190.19;;;12.69;100.00
57628;BME280;43451;49.060;10.616;2022-09-16T09:52:36;96183.34;;;12.61;97.99
57628;BME280;43451;49.060;10.616;2022-09-16T09:55:17;96181.03;;;12.59;100.00
57628;BME280;43451;49.060;10.616;2022-09-16T10:00:32;96182.84;;;12.66;100.00
57628;BME280;43451;49.060;10.616;2022-09-16T10:03:17;96187.81;;;12.71;100.00
57628;BME280;43451;49.060;10.616;2022-09-16T10:05:45;96190.91;;;12.73;100.00
57628;BME280;43451;49.060;10.616;2022-09-16T10:10:49;96181.03;;;12.79;100.00
57628;BME280;43451;49.060;10.616;2022-09-16T10:13:15;96179.47;;;12.78;100.00
57628;BME280;43451;49.060;10.616;2022-09-16T10:15:41;96181.53;;;12.74;100.00
57628;BME280;43451;49.060;10.616;2022-09-16T10:18:13;96181.19;;;12.72;100.00
57628;BME280;43451;49.060;10.616;2022-09-16T10:20:42;96174.03;;;12.78;100.00
57628;BME280;43451;49.060;10.616;2022-09-16T10:25:35;96174.31;;;12.64;100.00
57628;BME280;43451;49.060;10.616;2022-09-16T10:30:49;96181.88;;;12.76;100.00
57628;BME280;43451;49.060;10.616;2022-09-16T10:33:40;96181.88;;;12.76;100.00
57628;BME280;43451;49.060;10.616;2022-09-16T10:36:08;96173.84;;;12.69;100.00
57628;BME280;43451;49.060;10.616;2022-09-16T10:41:15;96185.72;;;12.78;100.00
57628;BME280;43451;49.060;10.616;2022-09-16T10:43:47;96183.34;;;12.81;100.00
57628;BME280;43451;49.060;10.616;2022-09-16T10:46:14;96181.72;;;12.83;100.00
57628;BME280;43451;49.060;10.616;2022-09-16T10:48:41;96176.63;;;12.85;100.00
57628;BME280;43451;49.060;10.616;2022-09-16T10:51:23;96181.66;;;12.87;100.00
57628;BME280;43451;49.060;10.616;2022-09-16T10:53:57;96182.22;;;12.98;100.00
57628;BME280;43451;49.060;10.616;2022-09-16T10:56:25;96180.13;;;13.06;100.00
57628;BME280;43451;49.060;10.616;2022-09-16T10:59:10;96182.84;;;13.06;100.00
57628;BME280;43451;49.060;10.616;2022-09-16T11:09:58;96176.84;;;12.94;100.00
57628;BME280;43451;49.060;10.616;2022-09-16T11:25:37;96186.97;;;12.94;100.00
57628;BME280;43451;49.060;10.616;2022-09-16T11:30:56;96186.09;;;13.00;100.00
57628;BME280;43451;49.060;10.616;2022-09-16T11:37:16;96185.09;;;13.11;100.00
57628;BME280;43451;49.060;10.616;2022-09-16T11:45:19;96180.63;;;13.00;100.00
57628;BME280;43451;49.060;10.616;2022-09-16T11:48:03;96177.19;;;12.96;100.00
57628;BME280;43451;49.060;10.616;2022-09-16T11:51:06;96173.63;;;12.99;100.00
57628;BME280;43451;49.060;10.616;2022-09-16T11:59:54;96167.31;;;13.02;100.00
57628;BME280;43451;49.060;10.616;2022-09-16T12:02:34;96157.97;;;13.04;100.00
57628;BME280;43451;49.060;10.616;2022-09-16T12:05:11;96153.53;;;13.10;100.00
57628;BME280;43451;49.060;10.616;2022-09-16T12:08:03;96149.28;;;13.09;100.00
57628;BME280;43451;49.060;10.616;2022-09-16T12:10:53;96147.22;;;13.13;100.00
57628;BME280;43451;49.060;10.616;2022-09-16T12:13:41;96159.41;;;13.08;100.00
57628;BME280;43451;49.060;10.616;2022-09-16T12:16:13;96157.69;;;12.98;100.00
57628;BME280;43451;49.060;10.616;2022-09-16T12:18:44;96154.88;;;13.01;100.00
57628;BME280;43451;49.060;10.616;2022-09-16T12:21:21;96157.97;;;13.04;100.00
57628;BME280;43451;49.060;10.616;2022-09-16T12:23:54;96156.22;;;13.13;100.00
57628;BME280;43451;49.060;10.616;2022-09-16T12:26:29;96147.03;;;13.23;100.00
57628;BME280;43451;49.060;10.616;2022-09-16T12:29:22;96148.50;;;13.28;99.40
57628;BME280;43451;49.060;10.616;2022-09-16T12:32:03;96149.22;;;13.32;100.00
57628;BME280;43451;49.060;10.616;2022-09-16T12:34:57;96154.72;;;13.29;100.00
57628;BME280;43451;49.060;10.616;2022-09-16T12:39:59;96158.19;;;13.49;100.00
57628;BME280;43451;49.060;10.616;2022-09-16T12:45:43;96149.00;;;13.76;100.00
57628;BME280;43451;49.060;10.616;2022-09-16T12:51:20;96148.88;;;14.28;95.56
57628;BME280;43451;49.060;10.616;2022-09-16T12:54:00;96139.66;;;14.22;92.55
57628;BME280;43451;49.060;10.616;2022-09-16T13:02:33;96150.81;;;14.44;91.02
57628;BME280;43451;49.060;10.616;2022-09-16T13:05:09;96142.34;;;14.55;90.75
57628;BME280;43451;49.060;10.616;2022-09-16T13:07:36;96138.16;;;14.50;87.63
57628;BME280;43451;49.060;10.616;2022-09-16T13:10:04;96147.16;;;14.34;86.87
57628;BME280;43451;49.060;10.616;2022-09-16T13:12:31;96141.34;;;14.32;89.49
57628;BME280;43451;49.060;10.616;2022-09-16T13:15:02;96159.41;;;14.13;88.27
57628;BME280;43451;49.060;10.616;2022-09-16T13:17:34;96151.03;;;13.88;89.69
57628;BME280;43451;49.060;10.616;2022-09-16T13:22:43;96151.44;;;13.54;93.63
57628;BME280;43451;49.060;10.616;2022-09-16T13:25:45;96146.31;;;13.39;97.71
57628;BME280;43451;49.060;10.616;2022-09-16T13:28:40;96144.44;;;13.36;93.52
57628;BME280;43451;49.060;10.616;2022-09-16T13:34:01;96127.38;;;13.32;98.95
57628;BME280;43451;49.060;10.616;2022-09-16T13:36:30;96124.94;;;13.54;100.00
57628;BME280;43451;49.060;10.616;2022-09-16T13:41:37;96115.44;;;14.08;98.95
57628;BME280;43451;49.060;10.616;2022-09-16T13:49:55;96115.50;;;14.66;98.15
57628;BME280;43451;49.060;10.616;2022-09-16T13:52:27;96114.22;;;14.83;99.03
57628;BME280;43451;49.060;10.616;2022-09-16T13:54:55;96108.22;;;14.89;94.12
57628;BME280;43451;49.060;10.616;2022-09-16T13:57:32;96109.34;;;15.04;93.30
57628;BME280;43451;49.060;10.616;2022-09-16T14:03:08;96106.16;;;15.05;89.63
57628;BME280;43451;49.060;10.616;2022-09-16T14:13:40;96106.94;;;15.31;92.41
57628;BME280;43451;49.060;10.616;2022-09-16T14:16:18;96103.66;;;15.37;91.65
57628;BME280;43451;49.060;10.616;2022-09-16T14:19:05;96102.56;;;15.21;94.93
57628;BME280;43451;49.060;10.616;2022-09-16T14:21:32;96097.53;;;15.07;92.83
57628;BME280;43451;49.060;10.616;2022-09-16T14:26:49;96098.31;;;15.33;92.80
57628;BME280;43451;49.060;10.616;2022-09-16T14:29:15;96088.13;;;15.46;91.95
57628;BME280;43451;49.060;10.616;2022-09-16T14:31:41;96089.88;;;15.40;89.72
57628;BME280;43451;49.060;10.616;2022-09-16T14:34:14;96093.59;;;15.59;92.37
57628;BME280;43451;49.060;10.616;2022-09-16T14:36:40;96096.00;;;15.44;90.48
57628;BME280;43451;49.060;10.616;2022-09-16T14:39:14;96098.94;;;15.63;91.41
57628;BME280;43451;49.060;10.616;2022-09-16T14:42:04;96097.19;;;15.82;91.53
57628;BME280;43451;49.060;10.616;2022-09-16T14:44:40;96096.03;;;15.70;90.41
57628;BME280;43451;49.060;10.616;2022-09-16T14:49:41;96086.69;;;15.80;87.64
57628;BME280;43451;49.060;10.616;2022-09-16T14:52:23;96080.72;;;15.94;87.11
57628;BME280;43451;49.060;10.616;2022-09-16T14:54:49;96071.66;;;15.85;79.38
57628;BME280;43451;49.060;10.616;2022-09-16T14:57:21;96074.31;;;15.75;84.34
57628;BME280;43451;49.060;10.616;2022-09-16T14:59:49;96080.25;;;15.74;81.91
57628;BME280;43451;49.060;10.616;2022-09-16T15:05:32;96090.75;;;15.50;78.78
57628;BME280;43451;49.060;10.616;2022-09-16T15:08:09;96096.53;;;15.65;77.72
57628;BME280;43451;49.060;10.616;2022-09-16T15:10:37;96092.19;;;15.54;74.71
57628;BME280;43451;49.060;10.616;2022-09-16T15:13:08;96095.13;;;15.47;77.26
57628;BME280;43451;49.060;10.616;2022-09-16T15:15:36;96093.81;;;15.52;78.40
57628;BME280;43451;49.060;10.616;2022-09-16T15:18:06;96101.47;;;15.57;80.15
57628;BME280;43451;49.060;10.616;2022-09-16T15:20:36;96101.16;;;15.55;80.26
57628;BME280;43451;49.060;10.616;2022-09-16T15:23:04;96098.28;;;15.84;78.67
57628;BME280;43451;49.060;10.616;2022-09-16T15:25:32;96110.25;;;15.77;77.12
57628;BME280;43451;49.060;10.616;2022-09-16T15:28:06;96096.00;;;15.83;74.74
57628;BME280;43451;49.060;10.616;2022-09-16T15:30:33;96104.88;;;15.48;69.66
57628;BME280;43451;49.060;10.616;2022-09-16T15:32:59;96109.38;;;15.29;75.38
57628;BME280;43451;49.060;10.616;2022-09-16T15:35:27;96107.72;;;15.06;78.22
57628;BME280;43451;49.060;10.616;2022-09-16T15:37:54;96111.47;;;14.83;78.15
57628;BME280;43451;49.060;10.616;2022-09-16T15:45:36;96131.03;;;14.24;79.90
57628;BME280;43451;49.060;10.616;2022-09-16T15:48:28;96128.94;;;13.82;81.35
57628;BME280;43451;49.060;10.616;2022-09-16T15:51:26;96112.06;;;13.71;84.55
57628;BME280;43451;49.060;10.616;2022-09-16T15:53:55;96110.34;;;13.77;87.07
57628;BME280;43451;49.060;10.616;2022-09-16T15:58:49;96105.22;;;13.79;87.64
57628;BME280;43451;49.060;10.616;2022-09-16T16:01:41;96099.59;;;13.86;84.94
57628;BME280;43451;49.060;10.616;2022-09-16T16:04:10;96104.91;;;13.77;88.39
57628;BME280;43451;49.060;10.616;2022-09-16T16:06:50;96110.50;;;13.70;86.81